Vernal Regional Airport Vernal US
ICAO: KVEL
IATA: VEL
Category: Medium
Scheduled Services: No

Elevation: 5278 ft
TransAlt. 18000 ft.

Airport Communications:
ASOS:135.175
CEDAR CITY RDO:122.35
CTAF/UNICOM:122.7

KVEL Zoom In..

If you have problems with the map follow the link
https://www.worldairports.se/pages/airport.php?
ICAO=KVEL

Runways:

(A) RW 07 length 4108 ft width 60 ft
---- / hdg 76

(B) RW 16 length 6201 ft width 150 ft
---- / hdg 166

(C) RW 25 length 4108 ft width 60 ft
---- / hdg 256

(D) RW 34 length 6201 ft width 150 ft
---- / hdg 346

Location; KVEL
Day. 11 / Time. 13.53 Zulu
* Altimeter: 30.25
* Temperature: -07° c. -19.4°f.
* Wind from: 000° Speed 00 kn.
Dewpoint: -09° c.
Visibility: 10 Statute Miles.
Clouds: Clear (automated report).

KVEL 111353Z AUTO 00000KT 10SM CLR M07/M09 A3025 RMK AO2 SLP280 T10671089


Wind - Calm.

 
 
jpsmedia worldairports.se 2019   terms of use